sensor_id;sensor_type;location;lat;lon;timestamp;P1;durP1;ratioP1;P2;durP2;ratioP2
59685;SDS011;45554;51.096;16.976;2024-03-29T00:00:57;6.20;;;3.40;;
59685;SDS011;45554;51.096;16.976;2024-03-29T00:03:48;6.00;;;3.00;;
59685;SDS011;45554;51.096;16.976;2024-03-29T00:06:27;6.50;;;3.40;;
59685;SDS011;45554;51.096;16.976;2024-03-29T00:08:55;6.40;;;3.40;;
59685;SDS011;45554;51.096;16.976;2024-03-29T00:11:27;5.50;;;2.90;;
59685;SDS011;45554;51.096;16.976;2024-03-29T00:14:05;5.90;;;3.30;;
59685;SDS011;45554;51.096;16.976;2024-03-29T00:16:38;6.00;;;3.00;;
59685;SDS011;45554;51.096;16.976;2024-03-29T00:19:11;5.80;;;3.10;;
59685;SDS011;45554;51.096;16.976;2024-03-29T00:22:13;6.10;;;3.40;;
59685;SDS011;45554;51.096;16.976;2024-03-29T00:24:44;4.40;;;2.80;;
59685;SDS011;45554;51.096;16.976;2024-03-29T00:27:13;6.10;;;3.20;;
59685;SDS011;45554;51.096;16.976;2024-03-29T00:29:53;5.10;;;3.00;;
59685;SDS011;45554;51.096;16.976;2024-03-29T00:32:26;5.80;;;3.00;;
59685;SDS011;45554;51.096;16.976;2024-03-29T00:34:55;6.60;;;3.20;;
59685;SDS011;45554;51.096;16.976;2024-03-29T00:39:51;6.60;;;3.40;;
59685;SDS011;45554;51.096;16.976;2024-03-29T00:43:07;5.50;;;3.40;;
59685;SDS011;45554;51.096;16.976;2024-03-29T00:45:57;5.00;;;2.90;;
59685;SDS011;45554;51.096;16.976;2024-03-29T00:48:28;7.00;;;3.90;;
59685;SDS011;45554;51.096;16.976;2024-03-29T00:51:24;6.00;;;3.60;;
59685;SDS011;45554;51.096;16.976;2024-03-29T00:54:21;6.00;;;3.30;;
59685;SDS011;45554;51.096;16.976;2024-03-29T00:56:59;5.70;;;3.20;;
59685;SDS011;45554;51.096;16.976;2024-03-29T00:59:54;6.20;;;3.70;;
59685;SDS011;45554;51.096;16.976;2024-03-29T01:02:34;5.40;;;3.20;;
59685;SDS011;45554;51.096;16.976;2024-03-29T01:05:03;6.90;;;3.30;;
59685;SDS011;45554;51.096;16.976;2024-03-29T01:07:35;6.10;;;3.40;;
59685;SDS011;45554;51.096;16.976;2024-03-29T01:10:21;5.80;;;3.30;;
59685;SDS011;45554;51.096;16.976;2024-03-29T01:12:52;5.20;;;3.00;;
59685;SDS011;45554;51.096;16.976;2024-03-29T01:15:22;6.30;;;3.40;;
59685;SDS011;45554;51.096;16.976;2024-03-29T01:17:51;7.90;;;3.30;;
59685;SDS011;45554;51.096;16.976;2024-03-29T01:20:19;6.00;;;3.30;;
59685;SDS011;45554;51.096;16.976;2024-03-29T01:22:47;5.20;;;3.30;;
59685;SDS011;45554;51.096;16.976;2024-03-29T01:25:18;5.50;;;3.10;;
59685;SDS011;45554;51.096;16.976;2024-03-29T01:28:00;6.00;;;3.80;;
59685;SDS011;45554;51.096;16.976;2024-03-29T01:30:56;4.60;;;3.00;;
59685;SDS011;45554;51.096;16.976;2024-03-29T01:33:29;5.40;;;3.30;;
59685;SDS011;45554;51.096;16.976;2024-03-29T01:36:02;5.30;;;3.30;;
59685;SDS011;45554;51.096;16.976;2024-03-29T01:38:53;5.00;;;3.40;;
59685;SDS011;45554;51.096;16.976;2024-03-29T01:41:24;5.30;;;3.40;;
59685;SDS011;45554;51.096;16.976;2024-03-29T01:43:57;5.30;;;3.50;;
59685;SDS011;45554;51.096;16.976;2024-03-29T01:46:24;6.00;;;2.90;;
59685;SDS011;45554;51.096;16.976;2024-03-29T01:48:57;5.70;;;3.20;;
59685;SDS011;45554;51.096;16.976;2024-03-29T01:51:34;4.00;;;2.80;;
59685;SDS011;45554;51.096;16.976;2024-03-29T01:54:06;5.20;;;3.10;;
59685;SDS011;45554;51.096;16.976;2024-03-29T01:56:43;4.40;;;2.80;;
59685;SDS011;45554;51.096;16.976;2024-03-29T01:59:15;6.20;;;3.50;;
59685;SDS011;45554;51.096;16.976;2024-03-29T02:01:57;5.50;;;3.50;;
59685;SDS011;45554;51.096;16.976;2024-03-29T02:04:27;6.40;;;3.00;;
59685;SDS011;45554;51.096;16.976;2024-03-29T02:06:58;5.20;;;3.20;;
59685;SDS011;45554;51.096;16.976;2024-03-29T02:09:28;5.60;;;3.20;;
59685;SDS011;45554;51.096;16.976;2024-03-29T02:14:41;6.50;;;3.70;;
59685;SDS011;45554;51.096;16.976;2024-03-29T02:17:21;6.80;;;3.70;;
59685;SDS011;45554;51.096;16.976;2024-03-29T02:19:51;5.60;;;3.60;;
59685;SDS011;45554;51.096;16.976;2024-03-29T02:22:25;6.60;;;3.70;;
59685;SDS011;45554;51.096;16.976;2024-03-29T02:25:02;4.90;;;3.10;;
59685;SDS011;45554;51.096;16.976;2024-03-29T02:27:32;5.30;;;3.00;;
59685;SDS011;45554;51.096;16.976;2024-03-29T02:32:31;5.90;;;3.20;;
59685;SDS011;45554;51.096;16.976;2024-03-29T02:35:06;5.70;;;3.00;;
59685;SDS011;45554;51.096;16.976;2024-03-29T02:37:37;5.40;;;3.30;;
59685;SDS011;45554;51.096;16.976;2024-03-29T02:40:05;5.10;;;3.40;;
59685;SDS011;45554;51.096;16.976;2024-03-29T02:42:35;5.30;;;3.20;;
59685;SDS011;45554;51.096;16.976;2024-03-29T02:45:08;5.90;;;3.10;;
59685;SDS011;45554;51.096;16.976;2024-03-29T02:47:43;6.30;;;3.60;;
59685;SDS011;45554;51.096;16.976;2024-03-29T02:50:12;5.50;;;3.10;;
59685;SDS011;45554;51.096;16.976;2024-03-29T02:52:51;4.40;;;3.10;;
59685;SDS011;45554;51.096;16.976;2024-03-29T02:55:32;6.10;;;3.30;;
59685;SDS011;45554;51.096;16.976;2024-03-29T02:57:59;6.40;;;3.30;;
59685;SDS011;45554;51.096;16.976;2024-03-29T03:00:26;5.60;;;3.10;;
59685;SDS011;45554;51.096;16.976;2024-03-29T03:03:03;4.80;;;3.00;;
59685;SDS011;45554;51.096;16.976;2024-03-29T03:05:33;5.20;;;2.90;;
59685;SDS011;45554;51.096;16.976;2024-03-29T03:08:00;6.60;;;3.40;;
59685;SDS011;45554;51.096;16.976;2024-03-29T03:10:52;5.40;;;3.00;;
59685;SDS011;45554;51.096;16.976;2024-03-29T03:13:29;5.80;;;3.20;;
59685;SDS011;45554;51.096;16.976;2024-03-29T03:15:58;4.80;;;3.10;;
59685;SDS011;45554;51.096;16.976;2024-03-29T03:18:34;5.20;;;2.70;;
59685;SDS011;45554;51.096;16.976;2024-03-29T03:21:07;6.40;;;3.20;;
59685;SDS011;45554;51.096;16.976;2024-03-29T03:24:00;5.70;;;3.00;;
59685;SDS011;45554;51.096;16.976;2024-03-29T03:26:57;7.00;;;3.60;;
59685;SDS011;45554;51.096;16.976;2024-03-29T03:29:32;5.70;;;3.20;;
59685;SDS011;45554;51.096;16.976;2024-03-29T03:32:08;5.00;;;2.90;;
59685;SDS011;45554;51.096;16.976;2024-03-29T03:34:58;4.30;;;2.90;;
59685;SDS011;45554;51.096;16.976;2024-03-29T03:37:31;4.80;;;3.00;;
59685;SDS011;45554;51.096;16.976;2024-03-29T03:39:58;5.90;;;2.80;;
59685;SDS011;45554;51.096;16.976;2024-03-29T03:42:28;5.00;;;2.50;;
59685;SDS011;45554;51.096;16.976;2024-03-29T03:44:58;5.00;;;2.50;;
59685;SDS011;45554;51.096;16.976;2024-03-29T03:47:29;4.90;;;2.50;;
59685;SDS011;45554;51.096;16.976;2024-03-29T03:50:05;4.10;;;2.40;;
59685;SDS011;45554;51.096;16.976;2024-03-29T03:52:35;4.60;;;2.30;;
59685;SDS011;45554;51.096;16.976;2024-03-29T03:55:24;3.70;;;2.10;;
59685;SDS011;45554;51.096;16.976;2024-03-29T03:57:58;4.40;;;2.40;;
59685;SDS011;45554;51.096;16.976;2024-03-29T04:00:27;5.40;;;2.40;;
59685;SDS011;45554;51.096;16.976;2024-03-29T04:02:58;4.30;;;2.50;;
59685;SDS011;45554;51.096;16.976;2024-03-29T04:05:28;3.70;;;2.20;;
59685;SDS011;45554;51.096;16.976;2024-03-29T04:08:03;5.30;;;2.60;;
59685;SDS011;45554;51.096;16.976;2024-03-29T04:10:39;4.60;;;2.40;;
59685;SDS011;45554;51.096;16.976;2024-03-29T04:13:42;5.40;;;2.30;;
59685;SDS011;45554;51.096;16.976;2024-03-29T04:16:13;5.00;;;2.60;;
59685;SDS011;45554;51.096;16.976;2024-03-29T04:18:44;5.00;;;2.60;;
59685;SDS011;45554;51.096;16.976;2024-03-29T04:21:14;5.00;;;2.50;;
59685;SDS011;45554;51.096;16.976;2024-03-29T04:23:46;4.20;;;2.30;;
59685;SDS011;45554;51.096;16.976;2024-03-29T04:26:15;4.80;;;2.70;;
59685;SDS011;45554;51.096;16.976;2024-03-29T04:28:42;5.50;;;2.60;;
59685;SDS011;45554;51.096;16.976;2024-03-29T04:31:19;4.80;;;2.40;;
59685;SDS011;45554;51.096;16.976;2024-03-29T04:34:12;5.70;;;2.70;;
59685;SDS011;45554;51.096;16.976;2024-03-29T04:36:42;4.20;;;2.50;;
59685;SDS011;45554;51.096;16.976;2024-03-29T04:39:09;6.60;;;2.80;;
59685;SDS011;45554;51.096;16.976;2024-03-29T04:41:57;5.90;;;2.60;;
59685;SDS011;45554;51.096;16.976;2024-03-29T04:44:31;5.60;;;2.30;;
59685;SDS011;45554;51.096;16.976;2024-03-29T04:47:06;3.50;;;2.30;;
59685;SDS011;45554;51.096;16.976;2024-03-29T04:49:50;6.60;;;2.60;;
59685;SDS011;45554;51.096;16.976;2024-03-29T04:52:23;4.70;;;2.10;;
59685;SDS011;45554;51.096;16.976;2024-03-29T04:55:00;5.10;;;2.20;;
59685;SDS011;45554;51.096;16.976;2024-03-29T04:57:41;3.90;;;2.30;;
59685;SDS011;45554;51.096;16.976;2024-03-29T05:00:21;5.30;;;2.40;;
59685;SDS011;45554;51.096;16.976;2024-03-29T05:02:49;5.50;;;2.70;;
59685;SDS011;45554;51.096;16.976;2024-03-29T05:05:21;5.40;;;2.30;;
59685;SDS011;45554;51.096;16.976;2024-03-29T05:08:14;5.40;;;2.40;;
59685;SDS011;45554;51.096;16.976;2024-03-29T05:10:52;4.60;;;2.40;;
59685;SDS011;45554;51.096;16.976;2024-03-29T05:13:27;6.10;;;2.30;;
59685;SDS011;45554;51.096;16.976;2024-03-29T05:16:01;5.40;;;2.30;;
59685;SDS011;45554;51.096;16.976;2024-03-29T05:18:52;4.10;;;2.10;;
59685;SDS011;45554;51.096;16.976;2024-03-29T05:21:30;4.40;;;2.10;;
59685;SDS011;45554;51.096;16.976;2024-03-29T05:24:01;7.10;;;2.40;;
59685;SDS011;45554;51.096;16.976;2024-03-29T05:26:28;4.50;;;2.30;;
59685;SDS011;45554;51.096;16.976;2024-03-29T05:29:14;4.90;;;2.10;;
59685;SDS011;45554;51.096;16.976;2024-03-29T05:31:48;4.70;;;2.20;;
59685;SDS011;45554;51.096;16.976;2024-03-29T05:34:27;3.80;;;1.90;;
59685;SDS011;45554;51.096;16.976;2024-03-29T05:37:13;6.20;;;2.20;;
59685;SDS011;45554;51.096;16.976;2024-03-29T05:39:48;3.90;;;2.10;;
59685;SDS011;45554;51.096;16.976;2024-03-29T05:42:32;4.70;;;2.10;;
59685;SDS011;45554;51.096;16.976;2024-03-29T05:45:30;4.80;;;2.00;;
59685;SDS011;45554;51.096;16.976;2024-03-29T05:48:04;3.70;;;2.00;;
59685;SDS011;45554;51.096;16.976;2024-03-29T05:50:40;3.00;;;2.00;;
59685;SDS011;45554;51.096;16.976;2024-03-29T05:53:33;6.20;;;2.20;;
59685;SDS011;45554;51.096;16.976;2024-03-29T05:56:10;3.90;;;2.00;;
59685;SDS011;45554;51.096;16.976;2024-03-29T05:58:44;2.60;;;1.60;;
59685;SDS011;45554;51.096;16.976;2024-03-29T06:01:17;3.60;;;1.80;;
59685;SDS011;45554;51.096;16.976;2024-03-29T06:03:53;4.00;;;1.80;;
59685;SDS011;45554;51.096;16.976;2024-03-29T06:06:33;5.20;;;1.90;;
59685;SDS011;45554;51.096;16.976;2024-03-29T06:09:02;5.00;;;1.80;;
59685;SDS011;45554;51.096;16.976;2024-03-29T06:11:45;4.90;;;1.70;;
59685;SDS011;45554;51.096;16.976;2024-03-29T06:14:38;5.20;;;1.80;;
59685;SDS011;45554;51.096;16.976;2024-03-29T06:17:28;4.70;;;1.60;;
59685;SDS011;45554;51.096;16.976;2024-03-29T06:20:03;4.50;;;1.60;;
59685;SDS011;45554;51.096;16.976;2024-03-29T06:22:47;4.00;;;1.80;;
59685;SDS011;45554;51.096;16.976;2024-03-29T06:27:43;3.90;;;1.80;;
59685;SDS011;45554;51.096;16.976;2024-03-29T06:30:21;4.30;;;1.70;;
59685;SDS011;45554;51.096;16.976;2024-03-29T06:32:57;4.80;;;1.90;;
59685;SDS011;45554;51.096;16.976;2024-03-29T06:35:31;4.80;;;1.80;;
59685;SDS011;45554;51.096;16.976;2024-03-29T06:38:40;4.30;;;1.90;;
59685;SDS011;45554;51.096;16.976;2024-03-29T06:41:31;4.20;;;1.50;;
59685;SDS011;45554;51.096;16.976;2024-03-29T06:44:24;5.70;;;1.90;;
59685;SDS011;45554;51.096;16.976;2024-03-29T06:47:02;3.90;;;1.70;;
59685;SDS011;45554;51.096;16.976;2024-03-29T06:50:11;3.00;;;1.50;;
59685;SDS011;45554;51.096;16.976;2024-03-29T07:02:17;2.90;;;1.30;;
59685;SDS011;45554;51.096;16.976;2024-03-29T07:05:00;2.80;;;1.30;;
59685;SDS011;45554;51.096;16.976;2024-03-29T07:07:45;4.20;;;1.40;;
59685;SDS011;45554;51.096;16.976;2024-03-29T07:10:26;4.70;;;1.40;;
59685;SDS011;45554;51.096;16.976;2024-03-29T07:13:02;4.60;;;1.40;;
59685;SDS011;45554;51.096;16.976;2024-03-29T07:15:37;2.90;;;1.20;;
59685;SDS011;45554;51.096;16.976;2024-03-29T07:18:23;3.70;;;1.70;;
59685;SDS011;45554;51.096;16.976;2024-03-29T07:24:27;4.80;;;1.50;;
59685;SDS011;45554;51.096;16.976;2024-03-29T07:28:13;3.00;;;1.00;;
59685;SDS011;45554;51.096;16.976;2024-03-29T07:31:49;4.30;;;1.10;;
59685;SDS011;45554;51.096;16.976;2024-03-29T07:35:47;5.00;;;1.20;;
59685;SDS011;45554;51.096;16.976;2024-03-29T07:48:18;3.00;;;1.20;;
59685;SDS011;45554;51.096;16.976;2024-03-29T07:52:26;3.50;;;1.10;;
59685;SDS011;45554;51.096;16.976;2024-03-29T07:56:08;4.20;;;1.30;;
59685;SDS011;45554;51.096;16.976;2024-03-29T07:59:31;5.50;;;1.20;;
59685;SDS011;45554;51.096;16.976;2024-03-29T08:03:24;3.40;;;1.00;;
59685;SDS011;45554;51.096;16.976;2024-03-29T08:07:03;4.60;;;1.40;;
59685;SDS011;45554;51.096;16.976;2024-03-29T08:24:41;5.20;;;1.10;;
59685;SDS011;45554;51.096;16.976;2024-03-29T08:27:18;3.20;;;0.90;;
59685;SDS011;45554;51.096;16.976;2024-03-29T08:30:08;4.90;;;1.20;;
59685;SDS011;45554;51.096;16.976;2024-03-29T08:38:12;4.10;;;1.00;;
59685;SDS011;45554;51.096;16.976;2024-03-29T08:49:31;4.40;;;0.90;;
59685;SDS011;45554;51.096;16.976;2024-03-29T08:52:56;5.10;;;1.20;;
59685;SDS011;45554;51.096;16.976;2024-03-29T12:31:44;3.20;;;0.80;;
59685;SDS011;45554;51.096;16.976;2024-03-29T12:35:05;3.60;;;0.90;;
59685;SDS011;45554;51.096;16.976;2024-03-29T12:38:34;18.40;;;1.00;;
59685;SDS011;45554;51.096;16.976;2024-03-29T12:41:19;4.10;;;0.80;;
59685;SDS011;45554;51.096;16.976;2024-03-29T12:48:12;2.00;;;0.60;;
59685;SDS011;45554;51.096;16.976;2024-03-29T12:50:49;3.00;;;0.70;;
59685;SDS011;45554;51.096;16.976;2024-03-29T12:53:37;1.70;;;0.80;;
59685;SDS011;45554;51.096;16.976;2024-03-29T12:56:24;2.80;;;0.80;;
59685;SDS011;45554;51.096;16.976;2024-03-29T13:00:24;1.30;;;0.60;;
59685;SDS011;45554;51.096;16.976;2024-03-29T13:03:23;2.70;;;0.80;;
59685;SDS011;45554;51.096;16.976;2024-03-29T13:06:19;4.50;;;1.20;;
59685;SDS011;45554;51.096;16.976;2024-03-29T13:10:01;2.50;;;0.70;;
59685;SDS011;45554;51.096;16.976;2024-03-29T13:22:04;2.20;;;0.80;;
59685;SDS011;45554;51.096;16.976;2024-03-29T13:25:12;4.80;;;0.80;;
59685;SDS011;45554;51.096;16.976;2024-03-29T13:28:08;1.30;;;0.60;;
59685;SDS011;45554;51.096;16.976;2024-03-29T13:30:53;1.90;;;0.70;;
59685;SDS011;45554;51.096;16.976;2024-03-29T13:51:21;1.80;;;0.70;;
59685;SDS011;45554;51.096;16.976;2024-03-29T13:54:22;3.80;;;0.80;;
59685;SDS011;45554;51.096;16.976;2024-03-29T13:57:03;2.90;;;0.70;;
59685;SDS011;45554;51.096;16.976;2024-03-29T14:00:07;1.50;;;0.80;;
59685;SDS011;45554;51.096;16.976;2024-03-29T14:09:49;3.90;;;0.70;;
59685;SDS011;45554;51.096;16.976;2024-03-29T14:12:24;1.60;;;0.70;;
59685;SDS011;45554;51.096;16.976;2024-03-29T14:14:57;1.00;;;0.60;;
59685;SDS011;45554;51.096;16.976;2024-03-29T14:17:37;1.50;;;0.90;;
59685;SDS011;45554;51.096;16.976;2024-03-29T14:23:33;2.00;;;0.70;;
59685;SDS011;45554;51.096;16.976;2024-03-29T14:26:37;2.60;;;0.60;;
59685;SDS011;45554;51.096;16.976;2024-03-29T14:29:55;1.60;;;0.70;;
59685;SDS011;45554;51.096;16.976;2024-03-29T14:32:39;1.90;;;0.70;;
59685;SDS011;45554;51.096;16.976;2024-03-29T14:35:40;3.10;;;0.60;;
59685;SDS011;45554;51.096;16.976;2024-03-29T14:41:44;2.40;;;0.80;;
59685;SDS011;45554;51.096;16.976;2024-03-29T14:44:50;1.60;;;0.70;;
59685;SDS011;45554;51.096;16.976;2024-03-29T14:48:05;1.70;;;0.60;;
59685;SDS011;45554;51.096;16.976;2024-03-29T14:51:10;3.50;;;1.00;;
59685;SDS011;45554;51.096;16.976;2024-03-29T14:54:01;1.90;;;0.70;;
59685;SDS011;45554;51.096;16.976;2024-03-29T14:56:35;2.60;;;0.70;;
59685;SDS011;45554;51.096;16.976;2024-03-29T14:59:43;2.70;;;1.00;;
59685;SDS011;45554;51.096;16.976;2024-03-29T15:02:57;1.70;;;0.90;;
59685;SDS011;45554;51.096;16.976;2024-03-29T15:07:13;5.10;;;1.00;;
59685;SDS011;45554;51.096;16.976;2024-03-29T15:14:47;3.80;;;1.00;;
59685;SDS011;45554;51.096;16.976;2024-03-29T15:20:19;2.70;;;1.10;;
59685;SDS011;45554;51.096;16.976;2024-03-29T15:22:53;1.50;;;0.80;;
59685;SDS011;45554;51.096;16.976;2024-03-29T15:25:27;2.00;;;0.80;;
59685;SDS011;45554;51.096;16.976;2024-03-29T15:28:39;5.50;;;1.10;;
59685;SDS011;45554;51.096;16.976;2024-03-29T15:32:09;2.60;;;1.00;;
59685;SDS011;45554;51.096;16.976;2024-03-29T15:36:29;3.50;;;0.90;;
59685;SDS011;45554;51.096;16.976;2024-03-29T15:39:02;3.30;;;1.00;;
59685;SDS011;45554;51.096;16.976;2024-03-29T15:42:18;2.10;;;0.90;;
59685;SDS011;45554;51.096;16.976;2024-03-29T15:45:57;3.70;;;1.20;;
59685;SDS011;45554;51.096;16.976;2024-03-29T15:49:00;3.00;;;0.90;;
59685;SDS011;45554;51.096;16.976;2024-03-29T15:55:17;3.20;;;1.10;;
59685;SDS011;45554;51.096;16.976;2024-03-29T15:57:47;4.70;;;1.10;;
59685;SDS011;45554;51.096;16.976;2024-03-29T16:00:56;3.40;;;1.10;;
59685;SDS011;45554;51.096;16.976;2024-03-29T16:03:39;4.00;;;1.30;;
59685;SDS011;45554;51.096;16.976;2024-03-29T16:07:00;3.40;;;1.20;;
59685;SDS011;45554;51.096;16.976;2024-03-29T16:15:46;4.60;;;1.70;;
59685;SDS011;45554;51.096;16.976;2024-03-29T16:19:25;3.60;;;1.40;;
59685;SDS011;45554;51.096;16.976;2024-03-29T16:25:14;4.20;;;1.50;;
59685;SDS011;45554;51.096;16.976;2024-03-29T16:27:44;5.30;;;1.60;;
59685;SDS011;45554;51.096;16.976;2024-03-29T16:30:51;3.90;;;1.10;;
59685;SDS011;45554;51.096;16.976;2024-03-29T16:33:28;4.80;;;1.50;;
59685;SDS011;45554;51.096;16.976;2024-03-29T16:36:17;4.20;;;1.40;;
59685;SDS011;45554;51.096;16.976;2024-03-29T16:38:54;4.20;;;1.60;;
59685;SDS011;45554;51.096;16.976;2024-03-29T16:41:31;4.00;;;1.50;;
59685;SDS011;45554;51.096;16.976;2024-03-29T16:44:24;6.10;;;1.90;;
59685;SDS011;45554;51.096;16.976;2024-03-29T16:46:54;6.40;;;2.40;;
59685;SDS011;45554;51.096;16.976;2024-03-29T16:49:24;5.70;;;2.30;;
59685;SDS011;45554;51.096;16.976;2024-03-29T16:52:05;7.10;;;3.00;;
59685;SDS011;45554;51.096;16.976;2024-03-29T16:54:54;6.60;;;2.40;;
59685;SDS011;45554;51.096;16.976;2024-03-29T17:00:06;6.80;;;2.40;;
59685;SDS011;45554;51.096;16.976;2024-03-29T17:02:49;5.70;;;2.00;;
59685;SDS011;45554;51.096;16.976;2024-03-29T17:08:18;5.10;;;2.00;;
59685;SDS011;45554;51.096;16.976;2024-03-29T17:10:46;6.30;;;1.90;;
59685;SDS011;45554;51.096;16.976;2024-03-29T17:13:31;5.50;;;1.50;;
59685;SDS011;45554;51.096;16.976;2024-03-29T17:16:15;6.40;;;1.80;;
59685;SDS011;45554;51.096;16.976;2024-03-29T17:19:03;4.40;;;1.60;;
59685;SDS011;45554;51.096;16.976;2024-03-29T17:21:51;4.20;;;1.60;;
59685;SDS011;45554;51.096;16.976;2024-03-29T17:25:05;4.60;;;1.70;;
59685;SDS011;45554;51.096;16.976;2024-03-29T17:27:38;5.90;;;1.90;;
59685;SDS011;45554;51.096;16.976;2024-03-29T17:30:25;6.30;;;1.80;;
59685;SDS011;45554;51.096;16.976;2024-03-29T17:32:56;6.30;;;1.70;;
59685;SDS011;45554;51.096;16.976;2024-03-29T17:35:45;4.40;;;1.50;;
59685;SDS011;45554;51.096;16.976;2024-03-29T17:38:15;6.70;;;1.60;;
59685;SDS011;45554;51.096;16.976;2024-03-29T17:40:44;5.20;;;1.70;;
59685;SDS011;45554;51.096;16.976;2024-03-29T17:44:17;5.30;;;2.20;;
59685;SDS011;45554;51.096;16.976;2024-03-29T17:49:48;7.90;;;2.20;;
59685;SDS011;45554;51.096;16.976;2024-03-29T17:53:12;8.00;;;2.40;;
59685;SDS011;45554;51.096;16.976;2024-03-29T17:55:44;5.20;;;2.10;;
59685;SDS011;45554;51.096;16.976;2024-03-29T17:58:15;6.20;;;2.30;;
59685;SDS011;45554;51.096;16.976;2024-03-29T18:00:47;5.70;;;2.30;;
59685;SDS011;45554;51.096;16.976;2024-03-29T18:03:52;10.60;;;3.00;;
59685;SDS011;45554;51.096;16.976;2024-03-29T18:06:26;7.50;;;3.20;;
59685;SDS011;45554;51.096;16.976;2024-03-29T18:08:56;8.10;;;2.80;;
59685;SDS011;45554;51.096;16.976;2024-03-29T18:11:28;8.30;;;3.60;;
59685;SDS011;45554;51.096;16.976;2024-03-29T18:14:21;7.70;;;3.20;;
59685;SDS011;45554;51.096;16.976;2024-03-29T18:16:56;8.80;;;3.30;;
59685;SDS011;45554;51.096;16.976;2024-03-29T18:19:28;6.80;;;3.10;;
59685;SDS011;45554;51.096;16.976;2024-03-29T18:21:57;7.90;;;3.50;;
59685;SDS011;45554;51.096;16.976;2024-03-29T18:24:31;9.00;;;3.10;;
59685;SDS011;45554;51.096;16.976;2024-03-29T18:27:06;7.70;;;2.90;;
59685;SDS011;45554;51.096;16.976;2024-03-29T18:29:41;6.60;;;2.80;;
59685;SDS011;45554;51.096;16.976;2024-03-29T18:32:30;10.60;;;3.30;;
59685;SDS011;45554;51.096;16.976;2024-03-29T18:35:28;7.00;;;2.00;;
59685;SDS011;45554;51.096;16.976;2024-03-29T18:37:59;8.00;;;2.70;;
59685;SDS011;45554;51.096;16.976;2024-03-29T18:40:37;8.20;;;3.00;;
59685;SDS011;45554;51.096;16.976;2024-03-29T18:43:11;7.80;;;2.60;;
59685;SDS011;45554;51.096;16.976;2024-03-29T18:49:48;7.50;;;2.70;;
59685;SDS011;45554;51.096;16.976;2024-03-29T18:52:15;8.70;;;2.80;;
59685;SDS011;45554;51.096;16.976;2024-03-29T18:55:03;8.50;;;2.80;;
59685;SDS011;45554;51.096;16.976;2024-03-29T18:57:47;8.30;;;2.80;;
59685;SDS011;45554;51.096;16.976;2024-03-29T19:00:22;7.70;;;2.70;;
59685;SDS011;45554;51.096;16.976;2024-03-29T19:02:55;8.40;;;2.80;;
59685;SDS011;45554;51.096;16.976;2024-03-29T19:05:23;7.40;;;2.60;;
59685;SDS011;45554;51.096;16.976;2024-03-29T19:08:33;9.80;;;2.80;;
59685;SDS011;45554;51.096;16.976;2024-03-29T19:11:18;8.70;;;2.70;;
59685;SDS011;45554;51.096;16.976;2024-03-29T19:13:55;9.20;;;3.00;;
59685;SDS011;45554;51.096;16.976;2024-03-29T19:16:28;8.30;;;2.80;;
59685;SDS011;45554;51.096;16.976;2024-03-29T19:18:57;8.50;;;3.00;;
59685;SDS011;45554;51.096;16.976;2024-03-29T19:21:30;10.10;;;3.30;;
59685;SDS011;45554;51.096;16.976;2024-03-29T19:24:02;9.90;;;3.10;;
59685;SDS011;45554;51.096;16.976;2024-03-29T19:26:47;9.10;;;3.20;;
59685;SDS011;45554;51.096;16.976;2024-03-29T19:29:20;9.80;;;3.90;;
59685;SDS011;45554;51.096;16.976;2024-03-29T19:31:48;8.10;;;3.00;;
59685;SDS011;45554;51.096;16.976;2024-03-29T19:34:19;8.40;;;2.80;;
59685;SDS011;45554;51.096;16.976;2024-03-29T19:36:49;9.40;;;3.30;;
59685;SDS011;45554;51.096;16.976;2024-03-29T19:39:37;8.00;;;3.20;;
59685;SDS011;45554;51.096;16.976;2024-03-29T19:42:22;8.00;;;3.20;;
59685;SDS011;45554;51.096;16.976;2024-03-29T19:45:36;8.40;;;3.30;;
59685;SDS011;45554;51.096;16.976;2024-03-29T19:48:08;10.10;;;3.60;;
59685;SDS011;45554;51.096;16.976;2024-03-29T19:50:58;8.70;;;3.60;;
59685;SDS011;45554;51.096;16.976;2024-03-29T19:54:09;9.40;;;3.40;;
59685;SDS011;45554;51.096;16.976;2024-03-29T19:56:41;9.60;;;3.70;;
59685;SDS011;45554;51.096;16.976;2024-03-29T19:59:33;8.30;;;3.60;;
59685;SDS011;45554;51.096;16.976;2024-03-29T20:08:01;12.30;;;4.30;;
59685;SDS011;45554;51.096;16.976;2024-03-29T20:10:36;9.20;;;4.20;;
59685;SDS011;45554;51.096;16.976;2024-03-29T20:13:09;11.60;;;4.30;;
59685;SDS011;45554;51.096;16.976;2024-03-29T20:15:59;12.20;;;4.40;;
59685;SDS011;45554;51.096;16.976;2024-03-29T20:18:29;10.50;;;4.40;;
59685;SDS011;45554;51.096;16.976;2024-03-29T20:21:05;12.10;;;4.70;;
59685;SDS011;45554;51.096;16.976;2024-03-29T20:24:01;13.10;;;5.00;;
59685;SDS011;45554;51.096;16.976;2024-03-29T20:26:41;12.40;;;4.70;;
59685;SDS011;45554;51.096;16.976;2024-03-29T20:29:27;10.80;;;5.00;;
59685;SDS011;45554;51.096;16.976;2024-03-29T20:32:08;11.80;;;4.70;;
59685;SDS011;45554;51.096;16.976;2024-03-29T20:34:44;11.80;;;5.40;;
59685;SDS011;45554;51.096;16.976;2024-03-29T20:37:31;12.20;;;4.80;;
59685;SDS011;45554;51.096;16.976;2024-03-29T20:40:04;13.00;;;5.70;;
59685;SDS011;45554;51.096;16.976;2024-03-29T20:42:49;11.50;;;4.90;;
59685;SDS011;45554;51.096;16.976;2024-03-29T20:45:35;13.10;;;5.50;;
59685;SDS011;45554;51.096;16.976;2024-03-29T20:48:16;13.00;;;5.80;;
59685;SDS011;45554;51.096;16.976;2024-03-29T20:50:57;13.80;;;5.50;;
59685;SDS011;45554;51.096;16.976;2024-03-29T20:54:03;12.90;;;5.70;;
59685;SDS011;45554;51.096;16.976;2024-03-29T20:56:44;13.40;;;5.50;;
59685;SDS011;45554;51.096;16.976;2024-03-29T20:59:15;14.20;;;5.50;;
59685;SDS011;45554;51.096;16.976;2024-03-29T21:01:43;15.10;;;6.30;;
59685;SDS011;45554;51.096;16.976;2024-03-29T21:04:28;13.50;;;6.20;;
59685;SDS011;45554;51.096;16.976;2024-03-29T21:07:27;12.40;;;5.90;;
59685;SDS011;45554;51.096;16.976;2024-03-29T21:10:11;12.20;;;5.20;;
59685;SDS011;45554;51.096;16.976;2024-03-29T21:12:39;12.20;;;5.30;;
59685;SDS011;45554;51.096;16.976;2024-03-29T21:16:03;13.10;;;5.40;;
59685;SDS011;45554;51.096;16.976;2024-03-29T21:18:39;11.00;;;4.80;;
59685;SDS011;45554;51.096;16.976;2024-03-29T21:21:22;11.60;;;4.90;;
59685;SDS011;45554;51.096;16.976;2024-03-29T21:24:07;12.80;;;5.30;;
59685;SDS011;45554;51.096;16.976;2024-03-29T21:27:04;11.80;;;5.50;;
59685;SDS011;45554;51.096;16.976;2024-03-29T21:29:43;12.40;;;5.10;;
59685;SDS011;45554;51.096;16.976;2024-03-29T21:32:16;14.40;;;5.20;;
59685;SDS011;45554;51.096;16.976;2024-03-29T21:34:43;12.90;;;5.00;;
59685;SDS011;45554;51.096;16.976;2024-03-29T21:37:18;12.00;;;4.80;;
59685;SDS011;45554;51.096;16.976;2024-03-29T21:40:14;12.50;;;5.10;;
59685;SDS011;45554;51.096;16.976;2024-03-29T21:42:42;13.80;;;4.90;;
59685;SDS011;45554;51.096;16.976;2024-03-29T21:47:40;13.80;;;5.50;;
59685;SDS011;45554;51.096;16.976;2024-03-29T21:50:07;12.40;;;5.30;;
59685;SDS011;45554;51.096;16.976;2024-03-29T21:56:11;12.80;;;5.60;;
59685;SDS011;45554;51.096;16.976;2024-03-29T21:58:44;14.70;;;5.70;;
59685;SDS011;45554;51.096;16.976;2024-03-29T22:01:24;14.70;;;5.80;;
59685;SDS011;45554;51.096;16.976;2024-03-29T22:03:51;14.20;;;5.30;;
59685;SDS011;45554;51.096;16.976;2024-03-29T22:06:19;16.50;;;6.20;;
59685;SDS011;45554;51.096;16.976;2024-03-29T22:08:49;14.30;;;6.60;;
59685;SDS011;45554;51.096;16.976;2024-03-29T22:11:18;14.80;;;6.20;;
59685;SDS011;45554;51.096;16.976;2024-03-29T22:13:57;15.20;;;6.30;;
59685;SDS011;45554;51.096;16.976;2024-03-29T22:16:34;13.20;;;6.00;;
59685;SDS011;45554;51.096;16.976;2024-03-29T22:19:02;10.60;;;5.30;;